Terminal Aerodrome Forecast
Issued by NWS

Home | Current Version | Previous Version | Text Only | Print | Product List | Glossary On
Versions: 1 2 3 4 5 6 7 8 9 10 11 12 13
000
FTUS44 KEPZ 292300 RRA
TAFLRU
TAF
KLRU 292342Z 3000/3024 25009G17KT P6SM FEW100 OVC250
     FM300200 24008KT P6SM FEW100 OVC250
     FM300900 09008KT P6SM SCT120 OVC200
     FM302000 19010G17KT P6SM BKN100 BKN200=

USA.gov is the U.S. government's official web portal to all federal, state and local government web resources and services.